Terminal Aerodrome Forecast
Issued by NWS

Home | Current Version | Previous Version | Text Only | Print | Product List | Glossary On
Versions: 1 2 3 4 5 6 7 8 9 10 11 12 13 14 15 16 17 18 19 20 21 22
000
FTUS45 KABQ 010700 AAA
TAFROW
TAF AMD
KROW 010745Z 0108/0206 28005KT P6SM VCSH BKN050 OVC080
      TEMPO 0108/0111 VRB11G19KT -SHRA BKN040
     FM011400 06005KT P6SM SCT025 OVC040
     FM012300 09010G20KT P6SM VCTS BKN050CB
     FM020200 12010KT P6SM SCT025 OVC040
     FM020500 36005KT P6SM SCT015 OVC040=

USA.gov is the U.S. government's official web portal to all federal, state and local government web resources and services.